sensor_id;sensor_type;location;lat;lon;timestamp;P1;durP1;ratioP1;P2;durP2;ratioP2
77078;SDS011;66004;55.096;38.760;2023-08-30T00:00:17;13.63;;;6.95;;
77078;SDS011;66004;55.096;38.760;2023-08-30T00:02:43;12.75;;;6.75;;
77078;SDS011;66004;55.096;38.760;2023-08-30T00:05:09;12.52;;;6.82;;
77078;SDS011;66004;55.096;38.760;2023-08-30T00:07:36;13.48;;;6.70;;
77078;SDS011;66004;55.096;38.760;2023-08-30T00:10:01;15.05;;;7.35;;
77078;SDS011;66004;55.096;38.760;2023-08-30T00:12:27;19.05;;;7.90;;
77078;SDS011;66004;55.096;38.760;2023-08-30T00:14:53;16.40;;;7.43;;
77078;SDS011;66004;55.096;38.760;2023-08-30T00:17:18;17.55;;;8.05;;
77078;SDS011;66004;55.096;38.760;2023-08-30T00:19:45;13.95;;;7.68;;
77078;SDS011;66004;55.096;38.760;2023-08-30T00:22:10;20.20;;;7.93;;
77078;SDS011;66004;55.096;38.760;2023-08-30T00:24:37;13.30;;;7.50;;
77078;SDS011;66004;55.096;38.760;2023-08-30T00:27:03;18.10;;;7.30;;
77078;SDS011;66004;55.096;38.760;2023-08-30T00:29:29;12.07;;;7.35;;
77078;SDS011;66004;55.096;38.760;2023-08-30T00:31:55;15.20;;;7.40;;
77078;SDS011;66004;55.096;38.760;2023-08-30T00:34:21;14.73;;;7.70;;
77078;SDS011;66004;55.096;38.760;2023-08-30T00:36:46;13.75;;;7.28;;
77078;SDS011;66004;55.096;38.760;2023-08-30T00:39:12;15.73;;;8.02;;
77078;SDS011;66004;55.096;38.760;2023-08-30T00:41:38;17.85;;;8.55;;
77078;SDS011;66004;55.096;38.760;2023-08-30T00:44:04;17.45;;;8.43;;
77078;SDS011;66004;55.096;38.760;2023-08-30T00:46:29;15.80;;;8.23;;
77078;SDS011;66004;55.096;38.760;2023-08-30T00:48:57;18.67;;;8.68;;
77078;SDS011;66004;55.096;38.760;2023-08-30T00:51:23;15.38;;;7.78;;
77078;SDS011;66004;55.096;38.760;2023-08-30T00:53:49;16.15;;;8.20;;
77078;SDS011;66004;55.096;38.760;2023-08-30T00:56:15;16.38;;;8.68;;
77078;SDS011;66004;55.096;38.760;2023-08-30T00:58:40;17.77;;;8.65;;
77078;SDS011;66004;55.096;38.760;2023-08-30T01:01:06;22.52;;;9.93;;
77078;SDS011;66004;55.096;38.760;2023-08-30T01:03:33;16.10;;;7.78;;
77078;SDS011;66004;55.096;38.760;2023-08-30T01:05:59;17.58;;;8.93;;
77078;SDS011;66004;55.096;38.760;2023-08-30T01:08:25;16.00;;;8.63;;
77078;SDS011;66004;55.096;38.760;2023-08-30T01:13:58;15.50;;;7.82;;
77078;SDS011;66004;55.096;38.760;2023-08-30T01:16:29;14.57;;;8.27;;
77078;SDS011;66004;55.096;38.760;2023-08-30T01:18:56;18.65;;;7.90;;
77078;SDS011;66004;55.096;38.760;2023-08-30T01:22:11;17.08;;;8.75;;
77078;SDS011;66004;55.096;38.760;2023-08-30T01:24:18;16.83;;;8.55;;
77078;SDS011;66004;55.096;38.760;2023-08-30T01:27:10;17.77;;;8.00;;
77078;SDS011;66004;55.096;38.760;2023-08-30T01:29:37;14.95;;;8.63;;
77078;SDS011;66004;55.096;38.760;2023-08-30T01:32:04;16.90;;;8.73;;
77078;SDS011;66004;55.096;38.760;2023-08-30T01:34:30;17.77;;;9.30;;
77078;SDS011;66004;55.096;38.760;2023-08-30T01:36:57;19.42;;;9.15;;
77078;SDS011;66004;55.096;38.760;2023-08-30T01:39:23;24.48;;;10.60;;
77078;SDS011;66004;55.096;38.760;2023-08-30T01:41:50;16.90;;;9.05;;
77078;SDS011;66004;55.096;38.760;2023-08-30T01:44:20;22.48;;;11.05;;
77078;SDS011;66004;55.096;38.760;2023-08-30T01:46:46;24.48;;;11.45;;
77078;SDS011;66004;55.096;38.760;2023-08-30T01:49:13;23.48;;;11.23;;
77078;SDS011;66004;55.096;38.760;2023-08-30T01:51:39;23.25;;;11.15;;
77078;SDS011;66004;55.096;38.760;2023-08-30T01:54:05;27.75;;;12.95;;
77078;SDS011;66004;55.096;38.760;2023-08-30T01:56:34;26.80;;;12.65;;
77078;SDS011;66004;55.096;38.760;2023-08-30T01:58:59;29.33;;;12.95;;
77078;SDS011;66004;55.096;38.760;2023-08-30T02:01:25;24.55;;;12.63;;
77078;SDS011;66004;55.096;38.760;2023-08-30T02:03:50;27.52;;;13.63;;
77078;SDS011;66004;55.096;38.760;2023-08-30T02:06:24;34.33;;;15.00;;
77078;SDS011;66004;55.096;38.760;2023-08-30T02:08:58;35.80;;;15.48;;
77078;SDS011;66004;55.096;38.760;2023-08-30T02:11:30;36.47;;;14.48;;
77078;SDS011;66004;55.096;38.760;2023-08-30T02:13:59;27.58;;;14.85;;
77078;SDS011;66004;55.096;38.760;2023-08-30T02:16:31;32.30;;;14.65;;
77078;SDS011;66004;55.096;38.760;2023-08-30T02:18:57;26.98;;;15.25;;
77078;SDS011;66004;55.096;38.760;2023-08-30T02:21:23;30.20;;;14.32;;
77078;SDS011;66004;55.096;38.760;2023-08-30T02:23:52;32.65;;;14.57;;
77078;SDS011;66004;55.096;38.760;2023-08-30T02:26:18;28.52;;;14.30;;
77078;SDS011;66004;55.096;38.760;2023-08-30T02:28:45;32.63;;;13.65;;
77078;SDS011;66004;55.096;38.760;2023-08-30T02:31:10;31.77;;;14.70;;
77078;SDS011;66004;55.096;38.760;2023-08-30T02:33:36;30.92;;;14.88;;
77078;SDS011;66004;55.096;38.760;2023-08-30T02:36:02;29.92;;;14.10;;
77078;SDS011;66004;55.096;38.760;2023-08-30T02:38:28;35.35;;;14.75;;
77078;SDS011;66004;55.096;38.760;2023-08-30T02:40:54;29.17;;;14.63;;
77078;SDS011;66004;55.096;38.760;2023-08-30T02:43:19;34.83;;;15.30;;
77078;SDS011;66004;55.096;38.760;2023-08-30T02:45:45;29.58;;;15.07;;
77078;SDS011;66004;55.096;38.760;2023-08-30T02:48:10;34.55;;;15.05;;
77078;SDS011;66004;55.096;38.760;2023-08-30T02:50:36;28.27;;;15.50;;
77078;SDS011;66004;55.096;38.760;2023-08-30T02:53:01;34.30;;;15.50;;
77078;SDS011;66004;55.096;38.760;2023-08-30T02:55:28;36.13;;;15.35;;
77078;SDS011;66004;55.096;38.760;2023-08-30T02:57:53;29.83;;;14.45;;
77078;SDS011;66004;55.096;38.760;2023-08-30T03:00:19;30.75;;;14.63;;
77078;SDS011;66004;55.096;38.760;2023-08-30T03:02:45;31.77;;;15.18;;
77078;SDS011;66004;55.096;38.760;2023-08-30T03:05:10;32.97;;;14.90;;
77078;SDS011;66004;55.096;38.760;2023-08-30T03:07:37;31.33;;;14.80;;
77078;SDS011;66004;55.096;38.760;2023-08-30T03:10:02;28.40;;;13.98;;
77078;SDS011;66004;55.096;38.760;2023-08-30T03:12:28;32.08;;;14.38;;
77078;SDS011;66004;55.096;38.760;2023-08-30T03:14:54;29.17;;;15.07;;
77078;SDS011;66004;55.096;38.760;2023-08-30T03:17:19;33.47;;;15.38;;
77078;SDS011;66004;55.096;38.760;2023-08-30T03:19:45;34.55;;;16.67;;
77078;SDS011;66004;55.096;38.760;2023-08-30T03:22:10;31.63;;;14.57;;
77078;SDS011;66004;55.096;38.760;2023-08-30T03:24:36;37.42;;;14.90;;
77078;SDS011;66004;55.096;38.760;2023-08-30T03:27:01;27.88;;;14.77;;
77078;SDS011;66004;55.096;38.760;2023-08-30T03:29:28;29.27;;;14.57;;
77078;SDS011;66004;55.096;38.760;2023-08-30T03:31:54;31.27;;;15.25;;
77078;SDS011;66004;55.096;38.760;2023-08-30T03:34:19;33.78;;;14.43;;
77078;SDS011;66004;55.096;38.760;2023-08-30T03:36:45;29.05;;;14.57;;
77078;SDS011;66004;55.096;38.760;2023-08-30T03:39:15;29.90;;;15.25;;
77078;SDS011;66004;55.096;38.760;2023-08-30T03:41:41;35.30;;;14.90;;
77078;SDS011;66004;55.096;38.760;2023-08-30T03:44:06;32.33;;;14.30;;
77078;SDS011;66004;55.096;38.760;2023-08-30T03:46:32;31.75;;;13.90;;
77078;SDS011;66004;55.096;38.760;2023-08-30T03:48:57;33.15;;;14.43;;
77078;SDS011;66004;55.096;38.760;2023-08-30T03:51:23;30.40;;;14.25;;
77078;SDS011;66004;55.096;38.760;2023-08-30T03:53:48;31.13;;;14.30;;
77078;SDS011;66004;55.096;38.760;2023-08-30T03:56:14;30.67;;;13.55;;
77078;SDS011;66004;55.096;38.760;2023-08-30T03:58:39;32.75;;;13.70;;
77078;SDS011;66004;55.096;38.760;2023-08-30T04:01:05;32.47;;;14.45;;
77078;SDS011;66004;55.096;38.760;2023-08-30T04:03:31;27.65;;;14.65;;
77078;SDS011;66004;55.096;38.760;2023-08-30T04:05:57;31.88;;;14.23;;
77078;SDS011;66004;55.096;38.760;2023-08-30T04:08:23;29.88;;;13.77;;
77078;SDS011;66004;55.096;38.760;2023-08-30T04:10:51;30.38;;;13.05;;
77078;SDS011;66004;55.096;38.760;2023-08-30T04:13:17;33.90;;;13.68;;
77078;SDS011;66004;55.096;38.760;2023-08-30T04:15:43;27.00;;;13.70;;
77078;SDS011;66004;55.096;38.760;2023-08-30T04:18:08;27.00;;;12.98;;
77078;SDS011;66004;55.096;38.760;2023-08-30T04:20:34;31.30;;;12.50;;
77078;SDS011;66004;55.096;38.760;2023-08-30T04:23:00;28.20;;;12.15;;
77078;SDS011;66004;55.096;38.760;2023-08-30T04:25:27;31.10;;;12.95;;
77078;SDS011;66004;55.096;38.760;2023-08-30T04:27:55;29.85;;;13.20;;
77078;SDS011;66004;55.096;38.760;2023-08-30T04:30:21;23.75;;;11.98;;
77078;SDS011;66004;55.096;38.760;2023-08-30T04:32:47;27.05;;;13.00;;
77078;SDS011;66004;55.096;38.760;2023-08-30T04:35:13;27.88;;;11.80;;
77078;SDS011;66004;55.096;38.760;2023-08-30T04:37:38;31.17;;;12.57;;
77078;SDS011;66004;55.096;38.760;2023-08-30T04:40:06;24.17;;;12.10;;
77078;SDS011;66004;55.096;38.760;2023-08-30T04:42:34;25.13;;;11.98;;
77078;SDS011;66004;55.096;38.760;2023-08-30T04:45:00;28.38;;;12.77;;
77078;SDS011;66004;55.096;38.760;2023-08-30T04:47:27;35.63;;;13.63;;
77078;SDS011;66004;55.096;38.760;2023-08-30T04:49:56;35.65;;;13.73;;
77078;SDS011;66004;55.096;38.760;2023-08-30T04:52:22;28.17;;;13.15;;
77078;SDS011;66004;55.096;38.760;2023-08-30T04:54:48;29.08;;;13.95;;
77078;SDS011;66004;55.096;38.760;2023-08-30T04:57:14;28.70;;;13.15;;
77078;SDS011;66004;55.096;38.760;2023-08-30T04:59:41;30.98;;;13.88;;
77078;SDS011;66004;55.096;38.760;2023-08-30T05:02:07;40.42;;;14.75;;
77078;SDS011;66004;55.096;38.760;2023-08-30T05:04:33;36.15;;;14.32;;
77078;SDS011;66004;55.096;38.760;2023-08-30T05:06:58;42.75;;;15.50;;
77078;SDS011;66004;55.096;38.760;2023-08-30T05:09:24;45.83;;;16.38;;
77078;SDS011;66004;55.096;38.760;2023-08-30T05:11:53;49.00;;;15.85;;
77078;SDS011;66004;55.096;38.760;2023-08-30T05:14:19;48.92;;;16.35;;
77078;SDS011;66004;55.096;38.760;2023-08-30T05:16:45;53.80;;;17.02;;
77078;SDS011;66004;55.096;38.760;2023-08-30T05:19:11;42.42;;;16.48;;
77078;SDS011;66004;55.096;38.760;2023-08-30T05:21:37;39.17;;;15.23;;
77078;SDS011;66004;55.096;38.760;2023-08-30T05:24:03;43.92;;;16.20;;
77078;SDS011;66004;55.096;38.760;2023-08-30T05:26:30;48.20;;;15.25;;
77078;SDS011;66004;55.096;38.760;2023-08-30T05:28:56;38.22;;;16.20;;
77078;SDS011;66004;55.096;38.760;2023-08-30T05:31:21;38.00;;;15.07;;
77078;SDS011;66004;55.096;38.760;2023-08-30T05:33:47;33.13;;;15.63;;
77078;SDS011;66004;55.096;38.760;2023-08-30T05:36:12;50.90;;;17.85;;
77078;SDS011;66004;55.096;38.760;2023-08-30T05:38:38;49.05;;;17.95;;
77078;SDS011;66004;55.096;38.760;2023-08-30T05:41:03;46.58;;;18.00;;
77078;SDS011;66004;55.096;38.760;2023-08-30T05:43:29;50.45;;;18.70;;
77078;SDS011;66004;55.096;38.760;2023-08-30T05:45:54;46.05;;;19.10;;
77078;SDS011;66004;55.096;38.760;2023-08-30T05:48:26;52.10;;;19.23;;
77078;SDS011;66004;55.096;38.760;2023-08-30T05:50:51;49.95;;;18.67;;
77078;SDS011;66004;55.096;38.760;2023-08-30T05:53:17;40.47;;;18.50;;
77078;SDS011;66004;55.096;38.760;2023-08-30T05:55:42;44.33;;;18.65;;
77078;SDS011;66004;55.096;38.760;2023-08-30T05:58:08;50.95;;;17.58;;
77078;SDS011;66004;55.096;38.760;2023-08-30T06:00:33;44.10;;;17.42;;
77078;SDS011;66004;55.096;38.760;2023-08-30T06:02:59;45.85;;;18.08;;
77078;SDS011;66004;55.096;38.760;2023-08-30T06:05:24;50.40;;;17.95;;
77078;SDS011;66004;55.096;38.760;2023-08-30T06:07:50;49.03;;;18.25;;
77078;SDS011;66004;55.096;38.760;2023-08-30T06:10:16;44.97;;;17.60;;
77078;SDS011;66004;55.096;38.760;2023-08-30T06:12:41;46.25;;;16.58;;
77078;SDS011;66004;55.096;38.760;2023-08-30T06:15:07;56.58;;;18.08;;
77078;SDS011;66004;55.096;38.760;2023-08-30T06:17:33;43.38;;;16.17;;
77078;SDS011;66004;55.096;38.760;2023-08-30T06:19:58;48.05;;;16.70;;
77078;SDS011;66004;55.096;38.760;2023-08-30T06:22:24;47.67;;;15.50;;
77078;SDS011;66004;55.096;38.760;2023-08-30T06:24:49;47.95;;;15.98;;
77078;SDS011;66004;55.096;38.760;2023-08-30T06:27:15;51.40;;;15.57;;
77078;SDS011;66004;55.096;38.760;2023-08-30T06:29:40;43.72;;;15.32;;
77078;SDS011;66004;55.096;38.760;2023-08-30T06:32:06;46.33;;;14.05;;
77078;SDS011;66004;55.096;38.760;2023-08-30T06:34:32;43.03;;;15.02;;
77078;SDS011;66004;55.096;38.760;2023-08-30T06:36:57;34.65;;;13.98;;
77078;SDS011;66004;55.096;38.760;2023-08-30T06:39:23;35.20;;;12.88;;
77078;SDS011;66004;55.096;38.760;2023-08-30T06:41:48;43.22;;;14.15;;
77078;SDS011;66004;55.096;38.760;2023-08-30T06:44:14;39.08;;;13.23;;
77078;SDS011;66004;55.096;38.760;2023-08-30T06:46:40;45.00;;;14.45;;
77078;SDS011;66004;55.096;38.760;2023-08-30T06:49:06;36.53;;;12.45;;
77078;SDS011;66004;55.096;38.760;2023-08-30T06:51:34;29.05;;;11.73;;
77078;SDS011;66004;55.096;38.760;2023-08-30T06:54:00;35.42;;;12.20;;
77078;SDS011;66004;55.096;38.760;2023-08-30T06:56:26;27.67;;;11.10;;
77078;SDS011;66004;55.096;38.760;2023-08-30T06:58:52;29.65;;;11.27;;
77078;SDS011;66004;55.096;38.760;2023-08-30T07:01:17;31.08;;;10.73;;
77078;SDS011;66004;55.096;38.760;2023-08-30T07:03:43;26.00;;;11.23;;
77078;SDS011;66004;55.096;38.760;2023-08-30T07:06:09;28.48;;;11.55;;
77078;SDS011;66004;55.096;38.760;2023-08-30T07:08:34;25.85;;;11.20;;
77078;SDS011;66004;55.096;38.760;2023-08-30T07:11:00;27.38;;;10.82;;
77078;SDS011;66004;55.096;38.760;2023-08-30T07:13:26;22.75;;;10.40;;
77078;SDS011;66004;55.096;38.760;2023-08-30T07:15:51;28.13;;;10.25;;
77078;SDS011;66004;55.096;38.760;2023-08-30T07:18:17;23.58;;;10.77;;
77078;SDS011;66004;55.096;38.760;2023-08-30T07:20:42;28.20;;;11.52;;
77078;SDS011;66004;55.096;38.760;2023-08-30T07:23:09;23.23;;;10.30;;
77078;SDS011;66004;55.096;38.760;2023-08-30T07:25:36;23.83;;;10.85;;
77078;SDS011;66004;55.096;38.760;2023-08-30T07:28:02;29.52;;;11.10;;
77078;SDS011;66004;55.096;38.760;2023-08-30T07:30:29;23.55;;;10.13;;
77078;SDS011;66004;55.096;38.760;2023-08-30T07:32:54;21.55;;;10.68;;
77078;SDS011;66004;55.096;38.760;2023-08-30T07:35:21;20.15;;;10.13;;
77078;SDS011;66004;55.096;38.760;2023-08-30T07:37:46;22.63;;;11.05;;
77078;SDS011;66004;55.096;38.760;2023-08-30T07:40:12;22.40;;;11.23;;
77078;SDS011;66004;55.096;38.760;2023-08-30T07:42:38;18.17;;;9.93;;
77078;SDS011;66004;55.096;38.760;2023-08-30T07:45:04;16.73;;;9.07;;
77078;SDS011;66004;55.096;38.760;2023-08-30T07:47:30;23.48;;;9.35;;
77078;SDS011;66004;55.096;38.760;2023-08-30T07:49:55;17.88;;;8.95;;
77078;SDS011;66004;55.096;38.760;2023-08-30T07:52:21;20.48;;;8.10;;
77078;SDS011;66004;55.096;38.760;2023-08-30T07:54:46;23.25;;;8.18;;
77078;SDS011;66004;55.096;38.760;2023-08-30T07:57:12;18.23;;;8.55;;
77078;SDS011;66004;55.096;38.760;2023-08-30T07:59:37;14.38;;;8.18;;
77078;SDS011;66004;55.096;38.760;2023-08-30T08:02:04;18.35;;;9.00;;
77078;SDS011;66004;55.096;38.760;2023-08-30T08:04:31;17.23;;;8.70;;
77078;SDS011;66004;55.096;38.760;2023-08-30T08:06:58;20.42;;;9.50;;
77078;SDS011;66004;55.096;38.760;2023-08-30T08:09:23;17.13;;;9.10;;
77078;SDS011;66004;55.096;38.760;2023-08-30T08:11:49;17.85;;;9.13;;
77078;SDS011;66004;55.096;38.760;2023-08-30T08:14:15;19.80;;;8.23;;
77078;SDS011;66004;55.096;38.760;2023-08-30T08:16:40;16.00;;;8.30;;
77078;SDS011;66004;55.096;38.760;2023-08-30T08:19:06;20.60;;;8.93;;
77078;SDS011;66004;55.096;38.760;2023-08-30T08:21:32;17.77;;;8.25;;
77078;SDS011;66004;55.096;38.760;2023-08-30T08:23:59;20.42;;;9.10;;
77078;SDS011;66004;55.096;38.760;2023-08-30T08:26:24;21.48;;;8.48;;
77078;SDS011;66004;55.096;38.760;2023-08-30T08:28:50;14.98;;;8.15;;
77078;SDS011;66004;55.096;38.760;2023-08-30T08:31:16;18.08;;;8.23;;
77078;SDS011;66004;55.096;38.760;2023-08-30T08:33:42;21.98;;;8.45;;
77078;SDS011;66004;55.096;38.760;2023-08-30T08:36:08;21.48;;;8.95;;
77078;SDS011;66004;55.096;38.760;2023-08-30T08:38:34;17.55;;;8.52;;
77078;SDS011;66004;55.096;38.760;2023-08-30T08:41:03;15.38;;;8.45;;
77078;SDS011;66004;55.096;38.760;2023-08-30T08:43:32;17.50;;;9.25;;
77078;SDS011;66004;55.096;38.760;2023-08-30T08:46:00;14.77;;;8.15;;
77078;SDS011;66004;55.096;38.760;2023-08-30T08:48:29;23.98;;;9.23;;
77078;SDS011;66004;55.096;38.760;2023-08-30T08:50:58;15.70;;;8.23;;
77078;SDS011;66004;55.096;38.760;2023-08-30T08:53:25;16.83;;;8.70;;
77078;SDS011;66004;55.096;38.760;2023-08-30T08:55:51;20.92;;;9.00;;
77078;SDS011;66004;55.096;38.760;2023-08-30T08:58:18;17.38;;;8.20;;
77078;SDS011;66004;55.096;38.760;2023-08-30T09:00:44;16.88;;;8.45;;
77078;SDS011;66004;55.096;38.760;2023-08-30T09:03:10;22.23;;;10.50;;
77078;SDS011;66004;55.096;38.760;2023-08-30T09:05:39;15.73;;;8.38;;
77078;SDS011;66004;55.096;38.760;2023-08-30T09:08:05;16.95;;;9.32;;
77078;SDS011;66004;55.096;38.760;2023-08-30T09:10:32;17.15;;;9.48;;
77078;SDS011;66004;55.096;38.760;2023-08-30T09:12:58;16.42;;;9.52;;
77078;SDS011;66004;55.096;38.760;2023-08-30T09:15:33;14.70;;;8.70;;
77078;SDS011;66004;55.096;38.760;2023-08-30T09:17:59;17.83;;;8.43;;
77078;SDS011;66004;55.096;38.760;2023-08-30T09:20:25;17.02;;;9.00;;
77078;SDS011;66004;55.096;38.760;2023-08-30T09:22:51;14.20;;;8.73;;
77078;SDS011;66004;55.096;38.760;2023-08-30T09:25:23;16.73;;;8.80;;
77078;SDS011;66004;55.096;38.760;2023-08-30T09:27:50;17.45;;;8.30;;
77078;SDS011;66004;55.096;38.760;2023-08-30T09:30:20;16.55;;;8.32;;
77078;SDS011;66004;55.096;38.760;2023-08-30T09:32:47;16.75;;;8.80;;
77078;SDS011;66004;55.096;38.760;2023-08-30T09:35:12;18.90;;;11.48;;
77078;SDS011;66004;55.096;38.760;2023-08-30T09:37:38;22.48;;;10.38;;
77078;SDS011;66004;55.096;38.760;2023-08-30T09:40:04;12.52;;;7.85;;
77078;SDS011;66004;55.096;38.760;2023-08-30T09:42:30;15.23;;;7.88;;
77078;SDS011;66004;55.096;38.760;2023-08-30T09:44:56;17.30;;;7.90;;
77078;SDS011;66004;55.096;38.760;2023-08-30T09:47:25;12.98;;;7.32;;
77078;SDS011;66004;55.096;38.760;2023-08-30T09:49:54;17.80;;;8.35;;
77078;SDS011;66004;55.096;38.760;2023-08-30T09:52:21;15.68;;;8.65;;
77078;SDS011;66004;55.096;38.760;2023-08-30T09:54:51;17.55;;;9.10;;
77078;SDS011;66004;55.096;38.760;2023-08-30T09:57:17;14.20;;;7.72;;
77078;SDS011;66004;55.096;38.760;2023-08-30T09:59:43;18.20;;;8.50;;
77078;SDS011;66004;55.096;38.760;2023-08-30T10:02:11;14.65;;;8.52;;
77078;SDS011;66004;55.096;38.760;2023-08-30T10:04:37;15.27;;;7.78;;
77078;SDS011;66004;55.096;38.760;2023-08-30T10:07:06;13.13;;;8.00;;
77078;SDS011;66004;55.096;38.760;2023-08-30T10:09:33;15.73;;;8.07;;
77078;SDS011;66004;55.096;38.760;2023-08-30T10:12:01;15.07;;;7.90;;
77078;SDS011;66004;55.096;38.760;2023-08-30T10:14:28;15.75;;;7.88;;
77078;SDS011;66004;55.096;38.760;2023-08-30T10:17:02;14.07;;;7.88;;
77078;SDS011;66004;55.096;38.760;2023-08-30T10:19:28;12.80;;;7.97;;
77078;SDS011;66004;55.096;38.760;2023-08-30T10:24:41;12.52;;;7.53;;
77078;SDS011;66004;55.096;38.760;2023-08-30T10:27:09;17.60;;;8.18;;
77078;SDS011;66004;55.096;38.760;2023-08-30T10:29:37;16.45;;;9.15;;
77078;SDS011;66004;55.096;38.760;2023-08-30T10:32:06;15.40;;;8.60;;
77078;SDS011;66004;55.096;38.760;2023-08-30T10:34:33;18.05;;;8.30;;
77078;SDS011;66004;55.096;38.760;2023-08-30T10:36:59;15.98;;;8.90;;
77078;SDS011;66004;55.096;38.760;2023-08-30T10:39:38;13.07;;;7.65;;
77078;SDS011;66004;55.096;38.760;2023-08-30T10:42:12;12.63;;;7.68;;
77078;SDS011;66004;55.096;38.760;2023-08-30T10:47:18;10.02;;;7.20;;
77078;SDS011;66004;55.096;38.760;2023-08-30T10:49:59;10.75;;;6.82;;
77078;SDS011;66004;55.096;38.760;2023-08-30T10:52:29;13.48;;;6.75;;
77078;SDS011;66004;55.096;38.760;2023-08-30T10:55:04;11.20;;;7.03;;
77078;SDS011;66004;55.096;38.760;2023-08-30T10:57:32;14.10;;;7.68;;
77078;SDS011;66004;55.096;38.760;2023-08-30T11:00:05;15.27;;;6.55;;
77078;SDS011;66004;55.096;38.760;2023-08-30T11:02:33;11.65;;;7.07;;
77078;SDS011;66004;55.096;38.760;2023-08-30T11:04:59;11.05;;;7.22;;
77078;SDS011;66004;55.096;38.760;2023-08-30T11:07:28;11.07;;;6.50;;
77078;SDS011;66004;55.096;38.760;2023-08-30T11:09:53;13.75;;;7.20;;
77078;SDS011;66004;55.096;38.760;2023-08-30T11:12:19;9.60;;;6.57;;
77078;SDS011;66004;55.096;38.760;2023-08-30T11:14:48;14.65;;;7.18;;
77078;SDS011;66004;55.096;38.760;2023-08-30T11:17:19;9.32;;;6.03;;
77078;SDS011;66004;55.096;38.760;2023-08-30T11:19:45;12.25;;;6.70;;
77078;SDS011;66004;55.096;38.760;2023-08-30T11:22:14;13.63;;;5.95;;
77078;SDS011;66004;55.096;38.760;2023-08-30T11:24:43;14.60;;;6.63;;
77078;SDS011;66004;55.096;38.760;2023-08-30T11:27:09;12.57;;;6.15;;
77078;SDS011;66004;55.096;38.760;2023-08-30T11:29:35;8.93;;;5.53;;
77078;SDS011;66004;55.096;38.760;2023-08-30T11:32:01;8.98;;;5.65;;
77078;SDS011;66004;55.096;38.760;2023-08-30T11:34:26;9.80;;;5.40;;
77078;SDS011;66004;55.096;38.760;2023-08-30T11:36:52;11.02;;;6.00;;
77078;SDS011;66004;55.096;38.760;2023-08-30T11:39:18;9.65;;;5.60;;
77078;SDS011;66004;55.096;38.760;2023-08-30T11:41:45;8.93;;;5.30;;
77078;SDS011;66004;55.096;38.760;2023-08-30T11:44:11;8.35;;;4.82;;
77078;SDS011;66004;55.096;38.760;2023-08-30T11:46:37;6.85;;;5.00;;
77078;SDS011;66004;55.096;38.760;2023-08-30T11:49:04;8.43;;;4.85;;
77078;SDS011;66004;55.096;38.760;2023-08-30T11:51:30;9.30;;;5.10;;
77078;SDS011;66004;55.096;38.760;2023-08-30T11:53:56;10.25;;;5.05;;
77078;SDS011;66004;55.096;38.760;2023-08-30T11:56:22;10.10;;;4.82;;
77078;SDS011;66004;55.096;38.760;2023-08-30T11:58:48;9.38;;;5.05;;
77078;SDS011;66004;55.096;38.760;2023-08-30T12:01:14;11.30;;;6.05;;
77078;SDS011;66004;55.096;38.760;2023-08-30T12:03:40;9.50;;;4.60;;
77078;SDS011;66004;55.096;38.760;2023-08-30T12:06:09;9.10;;;4.53;;
77078;SDS011;66004;55.096;38.760;2023-08-30T12:08:37;8.50;;;4.28;;
77078;SDS011;66004;55.096;38.760;2023-08-30T12:11:02;10.00;;;4.63;;
77078;SDS011;66004;55.096;38.760;2023-08-30T12:13:29;8.43;;;4.22;;
77078;SDS011;66004;55.096;38.760;2023-08-30T12:15:57;11.15;;;5.00;;
77078;SDS011;66004;55.096;38.760;2023-08-30T12:18:23;8.15;;;4.63;;
77078;SDS011;66004;55.096;38.760;2023-08-30T12:20:55;10.35;;;5.55;;
77078;SDS011;66004;55.096;38.760;2023-08-30T12:23:23;10.25;;;4.88;;
77078;SDS011;66004;55.096;38.760;2023-08-30T12:26:11;8.82;;;4.78;;
77078;SDS011;66004;55.096;38.760;2023-08-30T12:28:40;9.30;;;4.30;;
77078;SDS011;66004;55.096;38.760;2023-08-30T12:31:09;10.05;;;4.95;;
77078;SDS011;66004;55.096;38.760;2023-08-30T12:33:36;7.55;;;4.40;;
77078;SDS011;66004;55.096;38.760;2023-08-30T12:36:02;7.43;;;4.30;;
77078;SDS011;66004;55.096;38.760;2023-08-30T12:38:28;5.70;;;3.78;;
77078;SDS011;66004;55.096;38.760;2023-08-30T12:40:54;8.77;;;3.92;;
77078;SDS011;66004;55.096;38.760;2023-08-30T12:43:21;10.38;;;4.70;;
77078;SDS011;66004;55.096;38.760;2023-08-30T12:45:48;7.70;;;3.47;;
77078;SDS011;66004;55.096;38.760;2023-08-30T12:48:15;6.45;;;3.70;;
77078;SDS011;66004;55.096;38.760;2023-08-30T12:50:43;7.95;;;3.55;;
77078;SDS011;66004;55.096;38.760;2023-08-30T12:53:10;7.85;;;3.50;;
77078;SDS011;66004;55.096;38.760;2023-08-30T12:55:36;6.20;;;3.55;;
77078;SDS011;66004;55.096;38.760;2023-08-30T12:58:06;7.63;;;3.47;;
77078;SDS011;66004;55.096;38.760;2023-08-30T13:00:32;5.32;;;3.28;;
77078;SDS011;66004;55.096;38.760;2023-08-30T13:02:58;8.27;;;3.25;;
77078;SDS011;66004;55.096;38.760;2023-08-30T13:05:24;6.00;;;3.22;;
77078;SDS011;66004;55.096;38.760;2023-08-30T13:07:50;5.68;;;3.28;;
77078;SDS011;66004;55.096;38.760;2023-08-30T13:10:15;8.27;;;3.90;;
77078;SDS011;66004;55.096;38.760;2023-08-30T13:12:42;9.75;;;3.90;;
77078;SDS011;66004;55.096;38.760;2023-08-30T13:15:08;10.27;;;3.38;;
77078;SDS011;66004;55.096;38.760;2023-08-30T13:17:34;5.65;;;3.30;;
77078;SDS011;66004;55.096;38.760;2023-08-30T13:20:00;10.35;;;2.85;;
77078;SDS011;66004;55.096;38.760;2023-08-30T13:22:26;5.78;;;3.25;;
77078;SDS011;66004;55.096;38.760;2023-08-30T13:24:51;6.78;;;3.20;;
77078;SDS011;66004;55.096;38.760;2023-08-30T13:27:17;7.47;;;3.28;;
77078;SDS011;66004;55.096;38.760;2023-08-30T13:29:44;4.80;;;3.15;;
77078;SDS011;66004;55.096;38.760;2023-08-30T13:32:09;5.38;;;3.10;;
77078;SDS011;66004;55.096;38.760;2023-08-30T13:34:35;4.60;;;3.17;;
77078;SDS011;66004;55.096;38.760;2023-08-30T13:37:00;8.98;;;3.55;;
77078;SDS011;66004;55.096;38.760;2023-08-30T13:39:26;7.68;;;4.10;;
77078;SDS011;66004;55.096;38.760;2023-08-30T13:41:51;7.65;;;4.18;;
77078;SDS011;66004;55.096;38.760;2023-08-30T13:44:17;13.07;;;4.90;;
77078;SDS011;66004;55.096;38.760;2023-08-30T13:46:45;6.35;;;3.08;;
77078;SDS011;66004;55.096;38.760;2023-08-30T13:51:40;7.38;;;3.50;;
77078;SDS011;66004;55.096;38.760;2023-08-30T13:54:06;7.05;;;3.88;;
77078;SDS011;66004;55.096;38.760;2023-08-30T13:56:31;8.38;;;4.00;;
77078;SDS011;66004;55.096;38.760;2023-08-30T13:58:57;6.72;;;3.38;;
77078;SDS011;66004;55.096;38.760;2023-08-30T14:01:23;10.85;;;4.40;;
77078;SDS011;66004;55.096;38.760;2023-08-30T14:03:48;11.00;;;5.35;;
77078;SDS011;66004;55.096;38.760;2023-08-30T14:06:14;5.65;;;3.17;;
77078;SDS011;66004;55.096;38.760;2023-08-30T14:08:40;7.82;;;2.70;;
77078;SDS011;66004;55.096;38.760;2023-08-30T14:11:06;5.10;;;2.92;;
77078;SDS011;66004;55.096;38.760;2023-08-30T14:13:31;6.90;;;3.40;;
77078;SDS011;66004;55.096;38.760;2023-08-30T14:16:00;3.88;;;2.78;;
77078;SDS011;66004;55.096;38.760;2023-08-30T14:18:29;5.97;;;2.95;;
77078;SDS011;66004;55.096;38.760;2023-08-30T14:20:58;4.38;;;2.70;;
77078;SDS011;66004;55.096;38.760;2023-08-30T14:23:27;4.47;;;3.05;;
77078;SDS011;66004;55.096;38.760;2023-08-30T14:26:02;5.35;;;2.90;;